sensor_id;sensor_type;location;lat;lon;timestamp;P1;durP1;ratioP1;P2;durP2;ratioP2
10489;SDS011;35569;48.402;10.670;2023-04-24T00:00:15;6.83;;;4.10;;
10489;SDS011;35569;48.402;10.670;2023-04-24T00:00:49;5.10;;;4.70;;
10489;SDS011;35569;48.402;10.670;2023-04-24T00:01:24;7.10;;;4.53;;
10489;SDS011;35569;48.402;10.670;2023-04-24T00:01:56;4.80;;;4.50;;
10489;SDS011;35569;48.402;10.670;2023-04-24T00:02:30;4.10;;;3.90;;
10489;SDS011;35569;48.402;10.670;2023-04-24T00:03:06;4.30;;;4.00;;
10489;SDS011;35569;48.402;10.670;2023-04-24T00:03:39;4.43;;;4.23;;
10489;SDS011;35569;48.402;10.670;2023-04-24T00:04:12;4.37;;;4.07;;
10489;SDS011;35569;48.402;10.670;2023-04-24T00:04:49;4.30;;;3.90;;
10489;SDS011;35569;48.402;10.670;2023-04-24T00:05:21;5.00;;;4.70;;
10489;SDS011;35569;48.402;10.670;2023-04-24T00:05:54;5.37;;;3.90;;
10489;SDS011;35569;48.402;10.670;2023-04-24T00:06:30;4.47;;;4.17;;
10489;SDS011;35569;48.402;10.670;2023-04-24T00:07:05;5.20;;;4.70;;
10489;SDS011;35569;48.402;10.670;2023-04-24T00:07:38;4.20;;;4.00;;
10489;SDS011;35569;48.402;10.670;2023-04-24T00:08:13;4.23;;;4.03;;
10489;SDS011;35569;48.402;10.670;2023-04-24T00:08:45;4.07;;;3.83;;
10489;SDS011;35569;48.402;10.670;2023-04-24T00:09:17;3.90;;;3.70;;
10489;SDS011;35569;48.402;10.670;2023-04-24T00:09:52;4.33;;;4.13;;
10489;SDS011;35569;48.402;10.670;2023-04-24T00:10:25;4.20;;;4.00;;
10489;SDS011;35569;48.402;10.670;2023-04-24T00:10:58;4.30;;;4.10;;
10489;SDS011;35569;48.402;10.670;2023-04-24T00:11:33;4.93;;;4.47;;
10489;SDS011;35569;48.402;10.670;2023-04-24T00:12:05;4.33;;;4.10;;
10489;SDS011;35569;48.402;10.670;2023-04-24T00:12:38;4.17;;;3.97;;
10489;SDS011;35569;48.402;10.670;2023-04-24T00:13:13;3.97;;;3.77;;
10489;SDS011;35569;48.402;10.670;2023-04-24T00:13:45;4.37;;;4.17;;
10489;SDS011;35569;48.402;10.670;2023-04-24T00:14:20;3.73;;;3.53;;
10489;SDS011;35569;48.402;10.670;2023-04-24T00:14:56;4.50;;;4.30;;
10489;SDS011;35569;48.402;10.670;2023-04-24T00:15:28;4.90;;;4.60;;
10489;SDS011;35569;48.402;10.670;2023-04-24T00:16:01;4.60;;;4.40;;
10489;SDS011;35569;48.402;10.670;2023-04-24T00:16:37;4.10;;;3.90;;
10489;SDS011;35569;48.402;10.670;2023-04-24T00:17:09;4.40;;;4.10;;
10489;SDS011;35569;48.402;10.670;2023-04-24T00:17:41;3.97;;;3.77;;
10489;SDS011;35569;48.402;10.670;2023-04-24T00:18:16;3.60;;;3.50;;
10489;SDS011;35569;48.402;10.670;2023-04-24T00:18:49;3.90;;;3.80;;
10489;SDS011;35569;48.402;10.670;2023-04-24T00:19:24;4.10;;;3.80;;
10489;SDS011;35569;48.402;10.670;2023-04-24T00:19:59;4.27;;;3.97;;
10489;SDS011;35569;48.402;10.670;2023-04-24T00:20:32;4.70;;;4.50;;
10489;SDS011;35569;48.402;10.670;2023-04-24T00:21:05;3.77;;;3.57;;
10489;SDS011;35569;48.402;10.670;2023-04-24T00:21:40;8.00;;;4.03;;
10489;SDS011;35569;48.402;10.670;2023-04-24T00:22:12;4.43;;;4.20;;
10489;SDS011;35569;48.402;10.670;2023-04-24T00:22:45;3.27;;;3.17;;
10489;SDS011;35569;48.402;10.670;2023-04-24T00:23:20;4.30;;;4.00;;
10489;SDS011;35569;48.402;10.670;2023-04-24T00:23:52;6.00;;;4.30;;
10489;SDS011;35569;48.402;10.670;2023-04-24T00:24:24;4.67;;;4.30;;
10489;SDS011;35569;48.402;10.670;2023-04-24T00:24:59;4.93;;;4.67;;
10489;SDS011;35569;48.402;10.670;2023-04-24T00:25:32;3.83;;;3.53;;
10489;SDS011;35569;48.402;10.670;2023-04-24T00:26:05;3.30;;;3.20;;
10489;SDS011;35569;48.402;10.670;2023-04-24T00:26:40;4.10;;;3.80;;
10489;SDS011;35569;48.402;10.670;2023-04-24T00:27:12;3.97;;;3.67;;
10489;SDS011;35569;48.402;10.670;2023-04-24T00:27:45;7.03;;;3.43;;
10489;SDS011;35569;48.402;10.670;2023-04-24T00:28:20;3.67;;;3.47;;
10489;SDS011;35569;48.402;10.670;2023-04-24T00:28:52;3.77;;;3.53;;
10489;SDS011;35569;48.402;10.670;2023-04-24T00:29:27;3.70;;;3.60;;
10489;SDS011;35569;48.402;10.670;2023-04-24T00:30:03;3.90;;;3.70;;
10489;SDS011;35569;48.402;10.670;2023-04-24T00:30:36;3.67;;;3.50;;
10489;SDS011;35569;48.402;10.670;2023-04-24T00:31:09;3.83;;;3.63;;
10489;SDS011;35569;48.402;10.670;2023-04-24T00:31:44;3.83;;;3.70;;
10489;SDS011;35569;48.402;10.670;2023-04-24T00:32:18;3.97;;;3.77;;
10489;SDS011;35569;48.402;10.670;2023-04-24T00:32:53;3.90;;;3.70;;
10489;SDS011;35569;48.402;10.670;2023-04-24T00:33:28;4.00;;;3.80;;
10489;SDS011;35569;48.402;10.670;2023-04-24T00:34:01;3.40;;;3.30;;
10489;SDS011;35569;48.402;10.670;2023-04-24T00:34:33;3.77;;;3.67;;
10489;SDS011;35569;48.402;10.670;2023-04-24T00:35:06;4.10;;;3.30;;
10489;SDS011;35569;48.402;10.670;2023-04-24T00:35:41;3.33;;;3.23;;
10489;SDS011;35569;48.402;10.670;2023-04-24T00:36:15;4.20;;;3.93;;
10489;SDS011;35569;48.402;10.670;2023-04-24T00:36:48;2.90;;;2.80;;
10489;SDS011;35569;48.402;10.670;2023-04-24T00:37:23;4.30;;;4.10;;
10489;SDS011;35569;48.402;10.670;2023-04-24T00:37:56;3.93;;;3.73;;
10489;SDS011;35569;48.402;10.670;2023-04-24T00:38:29;3.43;;;3.23;;
10489;SDS011;35569;48.402;10.670;2023-04-24T00:39:04;3.23;;;3.10;;
10489;SDS011;35569;48.402;10.670;2023-04-24T00:39:36;3.70;;;3.40;;
10489;SDS011;35569;48.402;10.670;2023-04-24T00:40:09;3.07;;;2.97;;
10489;SDS011;35569;48.402;10.670;2023-04-24T00:40:46;3.30;;;3.17;;
10489;SDS011;35569;48.402;10.670;2023-04-24T00:41:19;3.87;;;3.67;;
10489;SDS011;35569;48.402;10.670;2023-04-24T00:41:52;3.77;;;3.57;;
10489;SDS011;35569;48.402;10.670;2023-04-24T00:42:28;4.13;;;3.93;;
10489;SDS011;35569;48.402;10.670;2023-04-24T00:43:01;3.30;;;3.00;;
10489;SDS011;35569;48.402;10.670;2023-04-24T00:43:33;3.70;;;3.57;;
10489;SDS011;35569;48.402;10.670;2023-04-24T00:44:08;4.00;;;3.70;;
10489;SDS011;35569;48.402;10.670;2023-04-24T00:44:43;3.80;;;3.70;;
10489;SDS011;35569;48.402;10.670;2023-04-24T00:45:16;2.80;;;2.70;;
10489;SDS011;35569;48.402;10.670;2023-04-24T00:45:51;3.50;;;3.40;;
10489;SDS011;35569;48.402;10.670;2023-04-24T00:46:23;3.43;;;3.30;;
10489;SDS011;35569;48.402;10.670;2023-04-24T00:46:56;3.07;;;2.90;;
10489;SDS011;35569;48.402;10.670;2023-04-24T00:47:28;3.57;;;3.37;;
10489;SDS011;35569;48.402;10.670;2023-04-24T00:48:04;2.93;;;2.83;;
10489;SDS011;35569;48.402;10.670;2023-04-24T00:48:37;3.57;;;3.37;;
10489;SDS011;35569;48.402;10.670;2023-04-24T00:49:09;3.50;;;3.40;;
10489;SDS011;35569;48.402;10.670;2023-04-24T00:49:45;3.60;;;3.40;;
10489;SDS011;35569;48.402;10.670;2023-04-24T00:50:17;3.70;;;3.60;;
10489;SDS011;35569;48.402;10.670;2023-04-24T00:50:51;3.50;;;3.30;;
10489;SDS011;35569;48.402;10.670;2023-04-24T00:51:26;3.80;;;3.60;;
10489;SDS011;35569;48.402;10.670;2023-04-24T00:51:59;3.57;;;3.47;;
10489;SDS011;35569;48.402;10.670;2023-04-24T00:52:31;4.20;;;4.00;;
10489;SDS011;35569;48.402;10.670;2023-04-24T00:53:06;3.13;;;3.03;;
10489;SDS011;35569;48.402;10.670;2023-04-24T00:53:39;3.50;;;3.30;;
10489;SDS011;35569;48.402;10.670;2023-04-24T00:54:12;4.10;;;3.90;;
10489;SDS011;35569;48.402;10.670;2023-04-24T00:54:46;3.70;;;3.40;;
10489;SDS011;35569;48.402;10.670;2023-04-24T00:55:19;3.73;;;3.43;;
10489;SDS011;35569;48.402;10.670;2023-04-24T00:55:51;3.00;;;2.90;;
10489;SDS011;35569;48.402;10.670;2023-04-24T00:56:24;4.00;;;3.70;;
10489;SDS011;35569;48.402;10.670;2023-04-24T00:56:59;3.10;;;3.00;;
10489;SDS011;35569;48.402;10.670;2023-04-24T00:57:32;3.70;;;3.40;;
10489;SDS011;35569;48.402;10.670;2023-04-24T00:58:05;3.30;;;3.20;;
10489;SDS011;35569;48.402;10.670;2023-04-24T00:58:40;3.10;;;3.00;;
10489;SDS011;35569;48.402;10.670;2023-04-24T00:59:13;3.17;;;3.00;;
10489;SDS011;35569;48.402;10.670;2023-04-24T00:59:50;3.40;;;3.20;;
10489;SDS011;35569;48.402;10.670;2023-04-24T01:00:26;3.00;;;2.80;;
10489;SDS011;35569;48.402;10.670;2023-04-24T01:00:58;5.27;;;3.10;;
10489;SDS011;35569;48.402;10.670;2023-04-24T01:01:34;3.60;;;3.30;;
10489;SDS011;35569;48.402;10.670;2023-04-24T01:02:09;3.33;;;3.13;;
10489;SDS011;35569;48.402;10.670;2023-04-24T01:02:43;3.43;;;3.33;;
10489;SDS011;35569;48.402;10.670;2023-04-24T01:03:17;3.07;;;2.97;;
10489;SDS011;35569;48.402;10.670;2023-04-24T01:03:52;3.50;;;3.23;;
10489;SDS011;35569;48.402;10.670;2023-04-24T01:04:26;3.30;;;3.20;;
10489;SDS011;35569;48.402;10.670;2023-04-24T01:04:59;3.37;;;3.10;;
10489;SDS011;35569;48.402;10.670;2023-04-24T01:05:35;3.23;;;3.13;;
10489;SDS011;35569;48.402;10.670;2023-04-24T01:06:07;3.83;;;3.50;;
10489;SDS011;35569;48.402;10.670;2023-04-24T01:06:41;2.97;;;2.87;;
10489;SDS011;35569;48.402;10.670;2023-04-24T01:07:18;3.57;;;3.40;;
10489;SDS011;35569;48.402;10.670;2023-04-24T01:07:55;3.10;;;2.90;;
10489;SDS011;35569;48.402;10.670;2023-04-24T01:08:27;3.00;;;2.90;;
10489;SDS011;35569;48.402;10.670;2023-04-24T01:09:03;4.40;;;4.23;;
10489;SDS011;35569;48.402;10.670;2023-04-24T01:09:35;3.50;;;3.40;;
10489;SDS011;35569;48.402;10.670;2023-04-24T01:10:08;4.10;;;3.90;;
10489;SDS011;35569;48.402;10.670;2023-04-24T01:10:44;4.77;;;4.47;;
10489;SDS011;35569;48.402;10.670;2023-04-24T01:11:16;3.90;;;3.70;;
10489;SDS011;35569;48.402;10.670;2023-04-24T01:11:50;4.67;;;4.47;;
10489;SDS011;35569;48.402;10.670;2023-04-24T01:12:25;3.53;;;3.33;;
10489;SDS011;35569;48.402;10.670;2023-04-24T01:12:57;4.50;;;4.20;;
10489;SDS011;35569;48.402;10.670;2023-04-24T01:13:30;3.70;;;3.30;;
10489;SDS011;35569;48.402;10.670;2023-04-24T01:14:07;3.20;;;3.10;;
10489;SDS011;35569;48.402;10.670;2023-04-24T01:14:39;2.90;;;2.80;;
10489;SDS011;35569;48.402;10.670;2023-04-24T01:15:14;3.63;;;3.43;;
10489;SDS011;35569;48.402;10.670;2023-04-24T01:15:50;2.83;;;2.73;;
10489;SDS011;35569;48.402;10.670;2023-04-24T01:16:23;4.30;;;3.63;;
10489;SDS011;35569;48.402;10.670;2023-04-24T01:16:55;2.63;;;2.53;;
10489;SDS011;35569;48.402;10.670;2023-04-24T01:17:31;3.00;;;2.90;;
10489;SDS011;35569;48.402;10.670;2023-04-24T01:18:04;3.17;;;2.97;;
10489;SDS011;35569;48.402;10.670;2023-04-24T01:18:36;3.10;;;3.00;;
10489;SDS011;35569;48.402;10.670;2023-04-24T01:19:12;3.20;;;3.03;;
10489;SDS011;35569;48.402;10.670;2023-04-24T01:19:47;3.20;;;3.03;;
10489;SDS011;35569;48.402;10.670;2023-04-24T01:20:19;2.93;;;2.83;;
10489;SDS011;35569;48.402;10.670;2023-04-24T01:20:53;2.70;;;2.50;;
10489;SDS011;35569;48.402;10.670;2023-04-24T01:21:31;2.73;;;2.63;;
10489;SDS011;35569;48.402;10.670;2023-04-24T01:22:13;3.53;;;3.33;;
10489;SDS011;35569;48.402;10.670;2023-04-24T01:22:46;3.13;;;3.03;;
10489;SDS011;35569;48.402;10.670;2023-04-24T01:23:21;2.87;;;2.77;;
10489;SDS011;35569;48.402;10.670;2023-04-24T01:23:55;3.10;;;3.00;;
10489;SDS011;35569;48.402;10.670;2023-04-24T01:24:28;3.13;;;3.03;;
10489;SDS011;35569;48.402;10.670;2023-04-24T01:25:03;3.30;;;3.20;;
10489;SDS011;35569;48.402;10.670;2023-04-24T01:25:37;3.30;;;3.13;;
10489;SDS011;35569;48.402;10.670;2023-04-24T01:26:09;2.97;;;2.87;;
10489;SDS011;35569;48.402;10.670;2023-04-24T01:26:45;2.90;;;2.80;;
10489;SDS011;35569;48.402;10.670;2023-04-24T01:27:17;3.10;;;3.00;;
10489;SDS011;35569;48.402;10.670;2023-04-24T01:27:50;2.67;;;2.57;;
10489;SDS011;35569;48.402;10.670;2023-04-24T01:28:25;3.20;;;3.10;;
10489;SDS011;35569;48.402;10.670;2023-04-24T01:28:58;3.03;;;2.87;;
10489;SDS011;35569;48.402;10.670;2023-04-24T01:29:30;2.83;;;2.73;;
10489;SDS011;35569;48.402;10.670;2023-04-24T01:30:03;3.13;;;3.03;;
10489;SDS011;35569;48.402;10.670;2023-04-24T01:30:39;3.10;;;3.00;;
10489;SDS011;35569;48.402;10.670;2023-04-24T01:31:12;3.53;;;3.43;;
10489;SDS011;35569;48.402;10.670;2023-04-24T01:31:44;2.47;;;2.37;;
10489;SDS011;35569;48.402;10.670;2023-04-24T01:32:17;2.93;;;2.83;;
10489;SDS011;35569;48.402;10.670;2023-04-24T01:32:53;2.67;;;2.57;;
10489;SDS011;35569;48.402;10.670;2023-04-24T01:33:25;2.40;;;2.30;;
10489;SDS011;35569;48.402;10.670;2023-04-24T01:33:58;2.53;;;2.53;;
10489;SDS011;35569;48.402;10.670;2023-04-24T01:34:31;2.90;;;2.63;;
10489;SDS011;35569;48.402;10.670;2023-04-24T01:35:07;2.70;;;2.60;;
10489;SDS011;35569;48.402;10.670;2023-04-24T01:35:39;2.77;;;2.50;;
10489;SDS011;35569;48.402;10.670;2023-04-24T01:36:12;2.67;;;2.57;;
10489;SDS011;35569;48.402;10.670;2023-04-24T01:36:48;2.97;;;2.87;;
10489;SDS011;35569;48.402;10.670;2023-04-24T01:37:23;2.40;;;2.30;;
10489;SDS011;35569;48.402;10.670;2023-04-24T01:37:55;2.10;;;2.10;;
10489;SDS011;35569;48.402;10.670;2023-04-24T01:38:31;2.60;;;2.50;;
10489;SDS011;35569;48.402;10.670;2023-04-24T01:39:03;2.50;;;2.40;;
10489;SDS011;35569;48.402;10.670;2023-04-24T01:39:36;3.40;;;3.20;;
10489;SDS011;35569;48.402;10.670;2023-04-24T01:40:11;2.97;;;2.87;;
10489;SDS011;35569;48.402;10.670;2023-04-24T01:40:44;2.40;;;2.30;;
10489;SDS011;35569;48.402;10.670;2023-04-24T01:41:16;2.70;;;2.60;;
10489;SDS011;35569;48.402;10.670;2023-04-24T01:41:51;2.57;;;2.47;;
10489;SDS011;35569;48.402;10.670;2023-04-24T01:42:25;3.20;;;2.90;;
10489;SDS011;35569;48.402;10.670;2023-04-24T01:42:57;2.40;;;2.30;;
10489;SDS011;35569;48.402;10.670;2023-04-24T01:43:30;2.10;;;2.10;;
10489;SDS011;35569;48.402;10.670;2023-04-24T01:44:05;2.80;;;2.70;;
10489;SDS011;35569;48.402;10.670;2023-04-24T01:44:39;3.03;;;2.60;;
10489;SDS011;35569;48.402;10.670;2023-04-24T01:45:12;2.70;;;2.60;;
10489;SDS011;35569;48.402;10.670;2023-04-24T01:45:44;2.30;;;2.20;;
10489;SDS011;35569;48.402;10.670;2023-04-24T01:46:19;8.20;;;2.37;;
10489;SDS011;35569;48.402;10.670;2023-04-24T01:46:52;2.90;;;2.70;;
10489;SDS011;35569;48.402;10.670;2023-04-24T01:47:25;2.60;;;2.50;;
10489;SDS011;35569;48.402;10.670;2023-04-24T01:48:01;3.10;;;2.90;;
10489;SDS011;35569;48.402;10.670;2023-04-24T01:48:34;2.70;;;2.60;;
10489;SDS011;35569;48.402;10.670;2023-04-24T01:49:06;2.90;;;2.80;;
10489;SDS011;35569;48.402;10.670;2023-04-24T01:49:42;2.70;;;2.60;;
10489;SDS011;35569;48.402;10.670;2023-04-24T01:50:16;2.73;;;2.60;;
10489;SDS011;35569;48.402;10.670;2023-04-24T01:50:49;2.47;;;2.37;;
10489;SDS011;35569;48.402;10.670;2023-04-24T01:51:24;2.93;;;2.83;;
10489;SDS011;35569;48.402;10.670;2023-04-24T01:51:56;2.53;;;2.43;;
10489;SDS011;35569;48.402;10.670;2023-04-24T01:52:31;2.53;;;2.43;;
10489;SDS011;35569;48.402;10.670;2023-04-24T01:53:07;2.43;;;2.33;;
10489;SDS011;35569;48.402;10.670;2023-04-24T01:53:40;2.40;;;2.30;;
10489;SDS011;35569;48.402;10.670;2023-04-24T01:54:14;2.00;;;2.00;;
10489;SDS011;35569;48.402;10.670;2023-04-24T01:54:47;2.80;;;2.70;;
10489;SDS011;35569;48.402;10.670;2023-04-24T01:55:22;5.47;;;5.00;;
10489;SDS011;35569;48.402;10.670;2023-04-24T01:55:55;3.67;;;3.57;;
10489;SDS011;35569;48.402;10.670;2023-04-24T01:56:29;3.60;;;3.50;;
10489;SDS011;35569;48.402;10.670;2023-04-24T01:57:04;2.90;;;2.80;;
10489;SDS011;35569;48.402;10.670;2023-04-24T01:57:37;3.47;;;3.30;;
10489;SDS011;35569;48.402;10.670;2023-04-24T01:58:10;2.70;;;2.60;;
10489;SDS011;35569;48.402;10.670;2023-04-24T01:58:45;2.53;;;2.40;;
10489;SDS011;35569;48.402;10.670;2023-04-24T01:59:17;2.60;;;2.50;;
10489;SDS011;35569;48.402;10.670;2023-04-24T01:59:50;2.40;;;2.30;;
10489;SDS011;35569;48.402;10.670;2023-04-24T02:00:25;2.43;;;2.20;;
10489;SDS011;35569;48.402;10.670;2023-04-24T02:00:58;2.27;;;2.17;;
10489;SDS011;35569;48.402;10.670;2023-04-24T02:01:33;2.20;;;2.20;;
10489;SDS011;35569;48.402;10.670;2023-04-24T02:02:09;2.20;;;2.10;;
10489;SDS011;35569;48.402;10.670;2023-04-24T02:02:42;2.63;;;2.53;;
10489;SDS011;35569;48.402;10.670;2023-04-24T02:03:18;2.10;;;2.10;;
10489;SDS011;35569;48.402;10.670;2023-04-24T02:03:54;2.50;;;2.33;;
10489;SDS011;35569;48.402;10.670;2023-04-24T02:04:27;2.93;;;2.83;;
10489;SDS011;35569;48.402;10.670;2023-04-24T02:04:59;2.37;;;2.27;;
10489;SDS011;35569;48.402;10.670;2023-04-24T02:05:35;2.57;;;2.37;;
10489;SDS011;35569;48.402;10.670;2023-04-24T02:06:07;2.73;;;2.63;;
10489;SDS011;35569;48.402;10.670;2023-04-24T02:06:39;2.97;;;2.73;;
10489;SDS011;35569;48.402;10.670;2023-04-24T02:07:12;2.60;;;2.50;;
10489;SDS011;35569;48.402;10.670;2023-04-24T02:07:49;2.20;;;2.20;;
10489;SDS011;35569;48.402;10.670;2023-04-24T02:08:22;2.07;;;2.07;;
10489;SDS011;35569;48.402;10.670;2023-04-24T02:08:54;2.63;;;2.43;;
10489;SDS011;35569;48.402;10.670;2023-04-24T02:09:29;2.80;;;2.70;;
10489;SDS011;35569;48.402;10.670;2023-04-24T02:10:02;2.57;;;2.47;;
10489;SDS011;35569;48.402;10.670;2023-04-24T02:10:35;2.47;;;2.37;;
10489;SDS011;35569;48.402;10.670;2023-04-24T02:11:09;2.83;;;2.60;;
10489;SDS011;35569;48.402;10.670;2023-04-24T02:11:44;2.33;;;2.33;;
10489;SDS011;35569;48.402;10.670;2023-04-24T02:12:16;2.47;;;2.37;;
10489;SDS011;35569;48.402;10.670;2023-04-24T02:12:49;1.70;;;1.70;;
10489;SDS011;35569;48.402;10.670;2023-04-24T02:13:27;2.30;;;2.20;;
10489;SDS011;35569;48.402;10.670;2023-04-24T02:14:00;2.50;;;2.40;;
10489;SDS011;35569;48.402;10.670;2023-04-24T02:14:32;2.40;;;2.30;;
10489;SDS011;35569;48.402;10.670;2023-04-24T02:15:07;2.20;;;2.10;;
10489;SDS011;35569;48.402;10.670;2023-04-24T02:15:41;2.47;;;2.37;;
10489;SDS011;35569;48.402;10.670;2023-04-24T02:16:13;2.60;;;2.17;;
10489;SDS011;35569;48.402;10.670;2023-04-24T02:16:49;1.87;;;1.87;;
10489;SDS011;35569;48.402;10.670;2023-04-24T02:17:21;1.93;;;1.93;;
10489;SDS011;35569;48.402;10.670;2023-04-24T02:17:54;2.50;;;2.40;;
10489;SDS011;35569;48.402;10.670;2023-04-24T02:18:29;2.33;;;2.23;;
10489;SDS011;35569;48.402;10.670;2023-04-24T02:19:02;2.27;;;2.17;;
10489;SDS011;35569;48.402;10.670;2023-04-24T02:19:34;2.53;;;2.43;;
10489;SDS011;35569;48.402;10.670;2023-04-24T02:20:09;2.63;;;2.53;;
10489;SDS011;35569;48.402;10.670;2023-04-24T02:20:42;2.00;;;2.00;;
10489;SDS011;35569;48.402;10.670;2023-04-24T02:21:14;2.60;;;2.50;;
10489;SDS011;35569;48.402;10.670;2023-04-24T02:21:50;2.60;;;2.50;;
10489;SDS011;35569;48.402;10.670;2023-04-24T02:22:22;1.90;;;1.90;;
10489;SDS011;35569;48.402;10.670;2023-04-24T02:22:57;2.20;;;2.20;;
10489;SDS011;35569;48.402;10.670;2023-04-24T02:23:32;2.43;;;2.33;;
10489;SDS011;35569;48.402;10.670;2023-04-24T02:24:04;3.63;;;2.27;;
10489;SDS011;35569;48.402;10.670;2023-04-24T02:24:37;2.00;;;1.90;;
10489;SDS011;35569;48.402;10.670;2023-04-24T02:25:12;1.90;;;1.90;;
10489;SDS011;35569;48.402;10.670;2023-04-24T02:25:45;2.40;;;2.17;;
10489;SDS011;35569;48.402;10.670;2023-04-24T02:26:17;2.30;;;2.20;;
10489;SDS011;35569;48.402;10.670;2023-04-24T02:26:52;2.40;;;2.30;;
10489;SDS011;35569;48.402;10.670;2023-04-24T02:27:25;3.53;;;2.53;;
10489;SDS011;35569;48.402;10.670;2023-04-24T02:27:57;2.17;;;2.07;;
10489;SDS011;35569;48.402;10.670;2023-04-24T02:28:32;2.10;;;2.10;;
10489;SDS011;35569;48.402;10.670;2023-04-24T02:29:04;2.60;;;2.50;;
10489;SDS011;35569;48.402;10.670;2023-04-24T02:29:37;2.10;;;2.00;;
10489;SDS011;35569;48.402;10.670;2023-04-24T02:30:12;2.60;;;2.50;;
10489;SDS011;35569;48.402;10.670;2023-04-24T02:30:45;2.17;;;2.03;;
10489;SDS011;35569;48.402;10.670;2023-04-24T02:31:17;2.43;;;2.33;;
10489;SDS011;35569;48.402;10.670;2023-04-24T02:31:53;2.00;;;2.00;;
10489;SDS011;35569;48.402;10.670;2023-04-24T02:32:25;2.43;;;2.23;;
10489;SDS011;35569;48.402;10.670;2023-04-24T02:32:57;2.13;;;2.03;;
10489;SDS011;35569;48.402;10.670;2023-04-24T02:33:32;2.60;;;2.50;;
10489;SDS011;35569;48.402;10.670;2023-04-24T02:34:05;1.87;;;1.87;;
10489;SDS011;35569;48.402;10.670;2023-04-24T02:34:40;2.00;;;1.90;;
10489;SDS011;35569;48.402;10.670;2023-04-24T02:35:13;2.00;;;2.00;;
10489;SDS011;35569;48.402;10.670;2023-04-24T02:35:45;2.60;;;2.50;;
10489;SDS011;35569;48.402;10.670;2023-04-24T02:36:20;2.30;;;2.10;;
10489;SDS011;35569;48.402;10.670;2023-04-24T02:36:53;1.73;;;1.67;;
10489;SDS011;35569;48.402;10.670;2023-04-24T02:37:25;2.10;;;2.00;;
10489;SDS011;35569;48.402;10.670;2023-04-24T02:38:03;2.27;;;2.17;;
10489;SDS011;35569;48.402;10.670;2023-04-24T02:38:36;1.93;;;1.93;;
10489;SDS011;35569;48.402;10.670;2023-04-24T02:39:09;2.30;;;2.20;;
10489;SDS011;35569;48.402;10.670;2023-04-24T02:39:45;2.27;;;2.17;;
10489;SDS011;35569;48.402;10.670;2023-04-24T02:40:17;1.80;;;1.70;;
10489;SDS011;35569;48.402;10.670;2023-04-24T02:40:50;1.90;;;1.90;;
10489;SDS011;35569;48.402;10.670;2023-04-24T02:41:25;2.07;;;2.00;;
10489;SDS011;35569;48.402;10.670;2023-04-24T02:42:03;2.33;;;2.23;;
10489;SDS011;35569;48.402;10.670;2023-04-24T02:42:35;2.00;;;2.00;;
10489;SDS011;35569;48.402;10.670;2023-04-24T02:43:10;1.80;;;1.80;;
10489;SDS011;35569;48.402;10.670;2023-04-24T02:43:42;2.10;;;2.10;;
10489;SDS011;35569;48.402;10.670;2023-04-24T02:44:17;2.23;;;2.13;;
10489;SDS011;35569;48.402;10.670;2023-04-24T02:44:50;2.03;;;1.93;;
10489;SDS011;35569;48.402;10.670;2023-04-24T02:45:23;1.63;;;1.63;;
10489;SDS011;35569;48.402;10.670;2023-04-24T02:45:58;1.60;;;1.60;;
10489;SDS011;35569;48.402;10.670;2023-04-24T02:46:30;2.20;;;2.10;;
10489;SDS011;35569;48.402;10.670;2023-04-24T02:47:03;2.00;;;1.90;;
10489;SDS011;35569;48.402;10.670;2023-04-24T02:47:39;1.90;;;1.90;;
10489;SDS011;35569;48.402;10.670;2023-04-24T02:48:11;1.80;;;1.80;;
10489;SDS011;35569;48.402;10.670;2023-04-24T02:48:44;1.63;;;1.60;;
10489;SDS011;35569;48.402;10.670;2023-04-24T02:49:19;2.37;;;2.27;;
10489;SDS011;35569;48.402;10.670;2023-04-24T02:49:51;1.93;;;1.93;;
10489;SDS011;35569;48.402;10.670;2023-04-24T02:50:24;2.20;;;2.20;;
10489;SDS011;35569;48.402;10.670;2023-04-24T02:50:59;1.87;;;1.87;;
10489;SDS011;35569;48.402;10.670;2023-04-24T02:51:32;2.50;;;2.40;;
10489;SDS011;35569;48.402;10.670;2023-04-24T02:52:04;2.30;;;2.20;;
10489;SDS011;35569;48.402;10.670;2023-04-24T02:52:39;2.10;;;2.00;;
10489;SDS011;35569;48.402;10.670;2023-04-24T02:53:14;1.80;;;1.80;;
10489;SDS011;35569;48.402;10.670;2023-04-24T02:53:47;1.87;;;1.77;;
10489;SDS011;35569;48.402;10.670;2023-04-24T02:54:22;1.63;;;1.63;;
10489;SDS011;35569;48.402;10.670;2023-04-24T02:54:54;1.97;;;1.87;;
10489;SDS011;35569;48.402;10.670;2023-04-24T02:55:27;3.63;;;2.20;;
10489;SDS011;35569;48.402;10.670;2023-04-24T02:56:02;1.83;;;1.80;;
10489;SDS011;35569;48.402;10.670;2023-04-24T02:56:34;1.70;;;1.60;;
10489;SDS011;35569;48.402;10.670;2023-04-24T02:57:08;1.80;;;1.80;;
10489;SDS011;35569;48.402;10.670;2023-04-24T02:57:46;2.07;;;1.97;;
10489;SDS011;35569;48.402;10.670;2023-04-24T02:58:18;2.50;;;2.00;;
10489;SDS011;35569;48.402;10.670;2023-04-24T02:58:51;1.67;;;1.57;;
10489;SDS011;35569;48.402;10.670;2023-04-24T02:59:26;1.67;;;1.67;;
10489;SDS011;35569;48.402;10.670;2023-04-24T03:00:00;2.17;;;2.07;;
10489;SDS011;35569;48.402;10.670;2023-04-24T03:00:32;1.63;;;1.60;;
10489;SDS011;35569;48.402;10.670;2023-04-24T03:01:07;1.93;;;1.83;;
10489;SDS011;35569;48.402;10.670;2023-04-24T03:01:41;2.13;;;2.03;;
10489;SDS011;35569;48.402;10.670;2023-04-24T03:02:14;1.67;;;1.60;;
10489;SDS011;35569;48.402;10.670;2023-04-24T03:02:49;1.73;;;1.73;;
10489;SDS011;35569;48.402;10.670;2023-04-24T03:03:22;1.80;;;1.80;;
10489;SDS011;35569;48.402;10.670;2023-04-24T03:03:56;1.73;;;1.73;;
10489;SDS011;35569;48.402;10.670;2023-04-24T03:04:31;1.77;;;1.67;;
10489;SDS011;35569;48.402;10.670;2023-04-24T03:05:04;1.80;;;1.70;;
10489;SDS011;35569;48.402;10.670;2023-04-24T03:05:37;1.40;;;1.40;;
10489;SDS011;35569;48.402;10.670;2023-04-24T03:06:12;1.90;;;1.80;;
10489;SDS011;35569;48.402;10.670;2023-04-24T03:06:45;1.93;;;1.93;;
10489;SDS011;35569;48.402;10.670;2023-04-24T03:07:17;1.53;;;1.53;;
10489;SDS011;35569;48.402;10.670;2023-04-24T03:07:53;1.70;;;1.70;;
10489;SDS011;35569;48.402;10.670;2023-04-24T03:08:28;1.80;;;1.80;;
10489;SDS011;35569;48.402;10.670;2023-04-24T03:09:01;2.07;;;1.97;;
10489;SDS011;35569;48.402;10.670;2023-04-24T03:09:36;1.73;;;1.73;;
10489;SDS011;35569;48.402;10.670;2023-04-24T03:10:09;1.40;;;1.40;;
10489;SDS011;35569;48.402;10.670;2023-04-24T03:10:42;2.20;;;2.00;;
10489;SDS011;35569;48.402;10.670;2023-04-24T03:11:19;2.10;;;2.00;;
10489;SDS011;35569;48.402;10.670;2023-04-24T03:11:51;1.90;;;1.80;;
10489;SDS011;35569;48.402;10.670;2023-04-24T03:12:24;1.80;;;1.70;;
10489;SDS011;35569;48.402;10.670;2023-04-24T03:12:59;1.60;;;1.60;;
10489;SDS011;35569;48.402;10.670;2023-04-24T03:13:31;1.80;;;1.80;;
10489;SDS011;35569;48.402;10.670;2023-04-24T03:14:07;1.60;;;1.60;;
10489;SDS011;35569;48.402;10.670;2023-04-24T03:14:41;1.40;;;1.40;;
10489;SDS011;35569;48.402;10.670;2023-04-24T03:15:14;1.90;;;1.90;;
10489;SDS011;35569;48.402;10.670;2023-04-24T03:15:49;1.87;;;1.77;;
10489;SDS011;35569;48.402;10.670;2023-04-24T03:16:22;1.70;;;1.70;;
10489;SDS011;35569;48.402;10.670;2023-04-24T03:16:54;1.63;;;1.63;;
10489;SDS011;35569;48.402;10.670;2023-04-24T03:17:29;1.83;;;1.73;;
10489;SDS011;35569;48.402;10.670;2023-04-24T03:18:02;1.87;;;1.77;;
10489;SDS011;35569;48.402;10.670;2023-04-24T03:18:34;1.70;;;1.70;;
10489;SDS011;35569;48.402;10.670;2023-04-24T03:19:11;1.50;;;1.40;;
10489;SDS011;35569;48.402;10.670;2023-04-24T03:20:01;1.67;;;1.67;;
10489;SDS011;35569;48.402;10.670;2023-04-24T03:20:34;1.77;;;1.77;;